Istanbul, Turkey

4:23 PM +03 on December 10, 2016 (GMT +0300)
Ataturk | | Change Station

Elev 121 ft 40.98 °N, 28.81 °E | Updated 33 minutes ago

Clear
Clear
54 °F
Feels Like 54 °F
N
8
Wind Variable Wind from WSW

Today
High -- | Low -- °F
--% Chance of Precip.
Yesterday
High -- | Low -- °F
Precip. -- in
Pressure 30.21 in
Visibility -9999.0 miles
Clouds
Dew Point 41 °F
Humidity 62%
Rainfall 0.00 in
Snow Depth Not available.
8:18 AM 5:36 PM
Waxing Gibbous, 83% visible
METAR LTBA 101250Z 25007KT CAVOK 12/05 Q1023 NOSIG RMK RWY17L 00000KT RWY05 24006KT 200V260 RWY23 21007KT
Pressure 30.21 in
Visibility -9999.0 miles
Clouds
Dew Point 41 °F
Humidity 62%
Rainfall 0.00 in
Snow Depth Not available.
8:18 AM 5:36 PM
Waxing Gibbous, 83% visible
METAR LTBA 101250Z 25007KT CAVOK 12/05 Q1023 NOSIG RMK RWY17L 00000KT RWY05 24006KT 200V260 RWY23 21007KT

10-Day Weather Forecast

×

Almanac

Astronomy

Dec. 10, 2016 Rise Set
Actual Time
Civil Twilight
Nautical Twilight
Astronomical Twilight
Moon
Length of Visible Light
Length of Day
Tomorrow will be .
, % of the Moon is Illuminated

Today's Extremes

Country Highs Country Lows

Community

WunderPhotos

Upload Photos

1,956,540 photos uploaded!

WunderBlog® & News

Nearby

Air Quality

  Air Quality AQ Index Pollutant
Not available.

Snow Depth

Station Depth Elevation

Earthquake Activity

City Distance Mag. Time & Date
Minimum magnitude displayed is 2.5.

Coastal Water Temperatures

Place Temperature

Stations

Nearby Weather Stations

Station Location Temp. Windchill Dew Point Humidity Wind Precip. Elev Updated Type